sensor_id;sensor_type;location;lat;lon;timestamp;P1;durP1;ratioP1;P2;durP2;ratioP2
56331;SDS011;42237;53.340;6.812;2022-08-02T00:00:45;6.63;;;3.20;;
56331;SDS011;42237;53.340;6.812;2022-08-02T00:03:11;5.35;;;3.45;;
56331;SDS011;42237;53.340;6.812;2022-08-02T00:05:37;7.40;;;3.30;;
56331;SDS011;42237;53.340;6.812;2022-08-02T00:08:03;8.32;;;3.35;;
56331;SDS011;42237;53.340;6.812;2022-08-02T00:10:28;7.32;;;3.70;;
56331;SDS011;42237;53.340;6.812;2022-08-02T00:12:54;6.53;;;3.83;;
56331;SDS011;42237;53.340;6.812;2022-08-02T00:15:20;6.10;;;3.33;;
56331;SDS011;42237;53.340;6.812;2022-08-02T00:17:46;8.00;;;3.58;;
56331;SDS011;42237;53.340;6.812;2022-08-02T00:20:12;7.65;;;3.30;;
56331;SDS011;42237;53.340;6.812;2022-08-02T00:22:38;6.32;;;3.25;;
56331;SDS011;42237;53.340;6.812;2022-08-02T00:25:04;9.63;;;3.25;;
56331;SDS011;42237;53.340;6.812;2022-08-02T00:27:30;6.22;;;3.05;;
56331;SDS011;42237;53.340;6.812;2022-08-02T00:29:55;7.53;;;3.17;;
56331;SDS011;42237;53.340;6.812;2022-08-02T00:32:21;7.22;;;3.40;;
56331;SDS011;42237;53.340;6.812;2022-08-02T00:34:47;9.18;;;2.97;;
56331;SDS011;42237;53.340;6.812;2022-08-02T00:37:13;6.40;;;2.88;;
56331;SDS011;42237;53.340;6.812;2022-08-02T00:39:39;6.45;;;3.00;;
56331;SDS011;42237;53.340;6.812;2022-08-02T00:42:06;4.63;;;2.80;;
56331;SDS011;42237;53.340;6.812;2022-08-02T00:44:32;10.27;;;3.42;;
56331;SDS011;42237;53.340;6.812;2022-08-02T00:46:57;6.32;;;3.13;;
56331;SDS011;42237;53.340;6.812;2022-08-02T00:49:23;5.72;;;3.08;;
56331;SDS011;42237;53.340;6.812;2022-08-02T00:51:49;7.25;;;3.45;;
56331;SDS011;42237;53.340;6.812;2022-08-02T00:54:15;5.95;;;3.22;;
56331;SDS011;42237;53.340;6.812;2022-08-02T00:56:40;7.18;;;3.17;;
56331;SDS011;42237;53.340;6.812;2022-08-02T00:59:06;6.47;;;3.17;;
56331;SDS011;42237;53.340;6.812;2022-08-02T01:01:32;7.70;;;3.55;;
56331;SDS011;42237;53.340;6.812;2022-08-02T01:04:07;8.73;;;3.97;;
56331;SDS011;42237;53.340;6.812;2022-08-02T01:06:34;5.50;;;3.65;;
56331;SDS011;42237;53.340;6.812;2022-08-02T01:09:02;8.65;;;3.55;;
56331;SDS011;42237;53.340;6.812;2022-08-02T01:11:28;7.32;;;4.28;;
56331;SDS011;42237;53.340;6.812;2022-08-02T01:13:58;5.88;;;3.58;;
56331;SDS011;42237;53.340;6.812;2022-08-02T01:16:31;8.18;;;3.20;;
56331;SDS011;42237;53.340;6.812;2022-08-02T01:19:07;6.15;;;2.90;;
56331;SDS011;42237;53.340;6.812;2022-08-02T01:21:49;4.05;;;3.13;;
56331;SDS011;42237;53.340;6.812;2022-08-02T01:27:36;6.20;;;3.20;;
56331;SDS011;42237;53.340;6.812;2022-08-02T01:30:15;7.10;;;3.20;;
56331;SDS011;42237;53.340;6.812;2022-08-02T01:32:43;7.07;;;3.63;;
56331;SDS011;42237;53.340;6.812;2022-08-02T01:35:27;6.50;;;3.10;;
56331;SDS011;42237;53.340;6.812;2022-08-02T01:38:15;8.43;;;3.88;;
56331;SDS011;42237;53.340;6.812;2022-08-02T01:40:57;6.68;;;3.30;;
56331;SDS011;42237;53.340;6.812;2022-08-02T01:43:25;6.60;;;3.08;;
56331;SDS011;42237;53.340;6.812;2022-08-02T01:45:53;12.30;;;3.47;;
56331;SDS011;42237;53.340;6.812;2022-08-02T01:48:20;7.20;;;3.08;;
56331;SDS011;42237;53.340;6.812;2022-08-02T01:50:48;7.60;;;2.60;;
56331;SDS011;42237;53.340;6.812;2022-08-02T01:53:16;7.10;;;2.63;;
56331;SDS011;42237;53.340;6.812;2022-08-02T01:55:50;7.50;;;3.03;;
56331;SDS011;42237;53.340;6.812;2022-08-02T01:58:19;8.52;;;2.78;;
56331;SDS011;42237;53.340;6.812;2022-08-02T02:00:49;9.27;;;2.88;;
56331;SDS011;42237;53.340;6.812;2022-08-02T02:03:21;6.00;;;2.72;;
56331;SDS011;42237;53.340;6.812;2022-08-02T02:05:48;6.95;;;2.53;;
56331;SDS011;42237;53.340;6.812;2022-08-02T02:08:19;9.20;;;3.22;;
56331;SDS011;42237;53.340;6.812;2022-08-02T02:10:49;6.80;;;3.03;;
56331;SDS011;42237;53.340;6.812;2022-08-02T02:13:16;4.82;;;2.97;;
56331;SDS011;42237;53.340;6.812;2022-08-02T02:15:45;5.97;;;3.10;;
56331;SDS011;42237;53.340;6.812;2022-08-02T02:18:13;9.93;;;2.63;;
56331;SDS011;42237;53.340;6.812;2022-08-02T02:20:44;6.65;;;2.55;;
56331;SDS011;42237;53.340;6.812;2022-08-02T02:23:11;6.90;;;2.85;;
56331;SDS011;42237;53.340;6.812;2022-08-02T02:25:37;6.72;;;2.78;;
56331;SDS011;42237;53.340;6.812;2022-08-02T02:28:07;7.65;;;3.38;;
56331;SDS011;42237;53.340;6.812;2022-08-02T02:30:36;7.65;;;2.97;;
56331;SDS011;42237;53.340;6.812;2022-08-02T02:33:05;4.57;;;2.60;;
56331;SDS011;42237;53.340;6.812;2022-08-02T02:35:32;5.35;;;2.72;;
56331;SDS011;42237;53.340;6.812;2022-08-02T02:38:01;5.93;;;2.75;;
56331;SDS011;42237;53.340;6.812;2022-08-02T02:40:29;7.15;;;2.90;;
56331;SDS011;42237;53.340;6.812;2022-08-02T02:42:55;6.53;;;2.83;;
56331;SDS011;42237;53.340;6.812;2022-08-02T02:45:24;6.68;;;3.30;;
56331;SDS011;42237;53.340;6.812;2022-08-02T02:47:51;8.43;;;3.05;;
56331;SDS011;42237;53.340;6.812;2022-08-02T02:50:19;7.22;;;3.17;;
56331;SDS011;42237;53.340;6.812;2022-08-02T02:52:46;7.13;;;2.90;;
56331;SDS011;42237;53.340;6.812;2022-08-02T02:55:13;6.00;;;3.40;;
56331;SDS011;42237;53.340;6.812;2022-08-02T02:57:40;8.43;;;3.65;;
56331;SDS011;42237;53.340;6.812;2022-08-02T03:00:10;7.65;;;3.45;;
56331;SDS011;42237;53.340;6.812;2022-08-02T03:02:38;5.75;;;3.22;;
56331;SDS011;42237;53.340;6.812;2022-08-02T03:05:05;7.05;;;3.72;;
56331;SDS011;42237;53.340;6.812;2022-08-02T03:07:32;7.80;;;3.75;;
56331;SDS011;42237;53.340;6.812;2022-08-02T03:09:59;8.50;;;3.33;;
56331;SDS011;42237;53.340;6.812;2022-08-02T03:12:25;7.38;;;3.72;;
56331;SDS011;42237;53.340;6.812;2022-08-02T03:14:52;9.30;;;4.15;;
56331;SDS011;42237;53.340;6.812;2022-08-02T03:17:18;6.32;;;3.53;;
56331;SDS011;42237;53.340;6.812;2022-08-02T03:19:44;7.90;;;3.72;;
56331;SDS011;42237;53.340;6.812;2022-08-02T03:22:10;5.75;;;3.50;;
56331;SDS011;42237;53.340;6.812;2022-08-02T03:24:37;7.75;;;3.53;;
56331;SDS011;42237;53.340;6.812;2022-08-02T03:27:02;6.43;;;3.45;;
56331;SDS011;42237;53.340;6.812;2022-08-02T03:29:28;5.90;;;3.38;;
56331;SDS011;42237;53.340;6.812;2022-08-02T03:31:54;13.00;;;4.35;;
56331;SDS011;42237;53.340;6.812;2022-08-02T03:34:21;8.48;;;3.40;;
56331;SDS011;42237;53.340;6.812;2022-08-02T03:36:49;5.85;;;3.35;;
56331;SDS011;42237;53.340;6.812;2022-08-02T03:39:18;7.97;;;3.53;;
56331;SDS011;42237;53.340;6.812;2022-08-02T03:41:44;9.65;;;4.20;;
56331;SDS011;42237;53.340;6.812;2022-08-02T03:44:12;7.65;;;3.47;;
56331;SDS011;42237;53.340;6.812;2022-08-02T03:46:39;8.43;;;3.88;;
56331;SDS011;42237;53.340;6.812;2022-08-02T03:49:06;12.13;;;4.15;;
56331;SDS011;42237;53.340;6.812;2022-08-02T03:51:33;7.07;;;3.72;;
56331;SDS011;42237;53.340;6.812;2022-08-02T03:54:00;6.72;;;3.72;;
56331;SDS011;42237;53.340;6.812;2022-08-02T03:56:27;9.43;;;3.50;;
56331;SDS011;42237;53.340;6.812;2022-08-02T03:59:09;7.78;;;3.92;;
56331;SDS011;42237;53.340;6.812;2022-08-02T04:01:36;6.40;;;3.42;;
56331;SDS011;42237;53.340;6.812;2022-08-02T04:04:03;7.40;;;3.33;;
56331;SDS011;42237;53.340;6.812;2022-08-02T04:06:29;7.03;;;3.03;;
56331;SDS011;42237;53.340;6.812;2022-08-02T04:08:55;6.80;;;3.70;;
56331;SDS011;42237;53.340;6.812;2022-08-02T04:11:20;6.78;;;3.60;;
56331;SDS011;42237;53.340;6.812;2022-08-02T04:13:55;6.60;;;3.60;;
56331;SDS011;42237;53.340;6.812;2022-08-02T04:16:43;7.80;;;4.00;;
56331;SDS011;42237;53.340;6.812;2022-08-02T04:22:14;7.15;;;3.78;;
56331;SDS011;42237;53.340;6.812;2022-08-02T04:24:44;5.28;;;3.60;;
56331;SDS011;42237;53.340;6.812;2022-08-02T04:27:16;8.77;;;3.65;;
56331;SDS011;42237;53.340;6.812;2022-08-02T04:29:47;10.90;;;3.90;;
56331;SDS011;42237;53.340;6.812;2022-08-02T04:32:14;6.72;;;3.65;;
56331;SDS011;42237;53.340;6.812;2022-08-02T04:34:41;10.32;;;4.15;;
56331;SDS011;42237;53.340;6.812;2022-08-02T04:37:07;4.88;;;3.85;;
56331;SDS011;42237;53.340;6.812;2022-08-02T04:39:35;7.55;;;3.60;;
56331;SDS011;42237;53.340;6.812;2022-08-02T04:42:01;5.05;;;3.80;;
56331;SDS011;42237;53.340;6.812;2022-08-02T04:44:26;6.10;;;4.05;;
56331;SDS011;42237;53.340;6.812;2022-08-02T04:46:52;8.07;;;4.18;;
56331;SDS011;42237;53.340;6.812;2022-08-02T04:49:19;8.23;;;4.20;;
56331;SDS011;42237;53.340;6.812;2022-08-02T04:51:45;6.45;;;3.72;;
56331;SDS011;42237;53.340;6.812;2022-08-02T04:54:11;9.25;;;4.10;;
56331;SDS011;42237;53.340;6.812;2022-08-02T04:56:37;6.32;;;3.80;;
56331;SDS011;42237;53.340;6.812;2022-08-02T04:59:03;5.55;;;4.20;;
56331;SDS011;42237;53.340;6.812;2022-08-02T05:01:29;8.50;;;3.70;;
56331;SDS011;42237;53.340;6.812;2022-08-02T05:03:56;7.45;;;3.85;;
56331;SDS011;42237;53.340;6.812;2022-08-02T05:06:22;7.00;;;3.67;;
56331;SDS011;42237;53.340;6.812;2022-08-02T05:08:48;9.02;;;3.97;;
56331;SDS011;42237;53.340;6.812;2022-08-02T05:11:14;6.68;;;4.20;;
56331;SDS011;42237;53.340;6.812;2022-08-02T05:13:40;7.65;;;4.05;;
56331;SDS011;42237;53.340;6.812;2022-08-02T05:16:06;7.38;;;4.15;;
56331;SDS011;42237;53.340;6.812;2022-08-02T05:18:34;8.93;;;4.22;;
56331;SDS011;42237;53.340;6.812;2022-08-02T05:21:00;8.07;;;4.13;;
56331;SDS011;42237;53.340;6.812;2022-08-02T05:23:25;9.25;;;4.03;;
56331;SDS011;42237;53.340;6.812;2022-08-02T05:25:51;7.68;;;4.57;;
56331;SDS011;42237;53.340;6.812;2022-08-02T05:28:17;8.50;;;4.50;;
56331;SDS011;42237;53.340;6.812;2022-08-02T05:30:43;6.45;;;4.20;;
56331;SDS011;42237;53.340;6.812;2022-08-02T05:33:08;8.23;;;4.60;;
56331;SDS011;42237;53.340;6.812;2022-08-02T05:35:34;10.02;;;4.53;;
56331;SDS011;42237;53.340;6.812;2022-08-02T05:38:00;9.63;;;4.32;;
56331;SDS011;42237;53.340;6.812;2022-08-02T05:40:26;6.95;;;4.65;;
56331;SDS011;42237;53.340;6.812;2022-08-02T05:42:52;9.02;;;4.22;;
56331;SDS011;42237;53.340;6.812;2022-08-02T05:45:18;10.25;;;4.55;;
56331;SDS011;42237;53.340;6.812;2022-08-02T05:47:44;12.25;;;4.85;;
56331;SDS011;42237;53.340;6.812;2022-08-02T05:50:10;7.78;;;4.65;;
56331;SDS011;42237;53.340;6.812;2022-08-02T05:55:28;9.85;;;4.10;;
56331;SDS011;42237;53.340;6.812;2022-08-02T05:58:05;9.95;;;5.05;;
56331;SDS011;42237;53.340;6.812;2022-08-02T06:00:49;14.82;;;5.10;;
56331;SDS011;42237;53.340;6.812;2022-08-02T06:03:38;7.60;;;4.57;;
56331;SDS011;42237;53.340;6.812;2022-08-02T06:06:13;6.65;;;4.18;;
56331;SDS011;42237;53.340;6.812;2022-08-02T06:08:45;12.40;;;4.90;;
56331;SDS011;42237;53.340;6.812;2022-08-02T06:11:25;8.93;;;4.03;;
56331;SDS011;42237;53.340;6.812;2022-08-02T06:13:59;13.13;;;4.70;;
56331;SDS011;42237;53.340;6.812;2022-08-02T06:16:27;10.45;;;4.07;;
56331;SDS011;42237;53.340;6.812;2022-08-02T06:18:52;9.20;;;4.38;;
56331;SDS011;42237;53.340;6.812;2022-08-02T06:21:19;10.48;;;4.55;;
56331;SDS011;42237;53.340;6.812;2022-08-02T06:23:46;6.97;;;4.35;;
56331;SDS011;42237;53.340;6.812;2022-08-02T06:26:12;6.88;;;4.13;;
56331;SDS011;42237;53.340;6.812;2022-08-02T06:28:40;9.60;;;4.55;;
56331;SDS011;42237;53.340;6.812;2022-08-02T06:31:07;7.32;;;4.05;;
56331;SDS011;42237;53.340;6.812;2022-08-02T06:33:34;6.78;;;3.65;;
56331;SDS011;42237;53.340;6.812;2022-08-02T06:38:26;7.05;;;4.07;;
56331;SDS011;42237;53.340;6.812;2022-08-02T06:41:00;6.82;;;3.90;;
56331;SDS011;42237;53.340;6.812;2022-08-02T06:43:42;7.03;;;3.78;;
56331;SDS011;42237;53.340;6.812;2022-08-02T06:46:17;6.82;;;3.60;;
56331;SDS011;42237;53.340;6.812;2022-08-02T06:48:43;6.30;;;3.47;;
56331;SDS011;42237;53.340;6.812;2022-08-02T06:51:09;10.07;;;3.78;;
56331;SDS011;42237;53.340;6.812;2022-08-02T06:53:35;8.10;;;3.30;;
56331;SDS011;42237;53.340;6.812;2022-08-02T06:56:00;7.75;;;3.42;;
56331;SDS011;42237;53.340;6.812;2022-08-02T06:58:26;4.63;;;3.13;;
56331;SDS011;42237;53.340;6.812;2022-08-02T07:00:52;5.90;;;3.13;;
56331;SDS011;42237;53.340;6.812;2022-08-02T07:03:20;5.05;;;2.65;;
56331;SDS011;42237;53.340;6.812;2022-08-02T07:05:46;4.93;;;2.53;;
56331;SDS011;42237;53.340;6.812;2022-08-02T07:08:13;10.63;;;3.20;;
56331;SDS011;42237;53.340;6.812;2022-08-02T07:10:39;6.40;;;2.53;;
56331;SDS011;42237;53.340;6.812;2022-08-02T07:13:05;8.40;;;3.40;;
56331;SDS011;42237;53.340;6.812;2022-08-02T07:15:31;5.72;;;2.50;;
56331;SDS011;42237;53.340;6.812;2022-08-02T07:17:56;5.43;;;2.33;;
56331;SDS011;42237;53.340;6.812;2022-08-02T07:20:22;6.43;;;2.72;;
56331;SDS011;42237;53.340;6.812;2022-08-02T07:22:48;7.40;;;2.65;;
56331;SDS011;42237;53.340;6.812;2022-08-02T07:25:14;2.80;;;1.95;;
56331;SDS011;42237;53.340;6.812;2022-08-02T07:27:40;6.70;;;2.70;;
56331;SDS011;42237;53.340;6.812;2022-08-02T07:30:09;9.43;;;3.28;;
56331;SDS011;42237;53.340;6.812;2022-08-02T07:32:38;8.38;;;2.88;;
56331;SDS011;42237;53.340;6.812;2022-08-02T07:35:04;7.60;;;2.85;;
56331;SDS011;42237;53.340;6.812;2022-08-02T07:37:31;6.15;;;2.63;;
56331;SDS011;42237;53.340;6.812;2022-08-02T07:39:58;6.40;;;2.28;;
56331;SDS011;42237;53.340;6.812;2022-08-02T07:42:24;8.70;;;2.15;;
56331;SDS011;42237;53.340;6.812;2022-08-02T07:44:50;4.70;;;1.75;;
56331;SDS011;42237;53.340;6.812;2022-08-02T07:47:16;3.75;;;1.98;;
56331;SDS011;42237;53.340;6.812;2022-08-02T07:49:42;4.82;;;1.88;;
56331;SDS011;42237;53.340;6.812;2022-08-02T07:52:07;4.60;;;1.58;;
56331;SDS011;42237;53.340;6.812;2022-08-02T07:54:34;4.25;;;1.60;;
56331;SDS011;42237;53.340;6.812;2022-08-02T07:56:59;5.60;;;1.92;;
56331;SDS011;42237;53.340;6.812;2022-08-02T07:59:25;5.18;;;2.03;;
56331;SDS011;42237;53.340;6.812;2022-08-02T08:01:54;6.05;;;2.28;;
56331;SDS011;42237;53.340;6.812;2022-08-02T08:04:20;2.63;;;1.45;;
56331;SDS011;42237;53.340;6.812;2022-08-02T08:06:45;2.85;;;1.45;;
56331;SDS011;42237;53.340;6.812;2022-08-02T08:09:17;5.28;;;1.80;;
56331;SDS011;42237;53.340;6.812;2022-08-02T08:11:43;4.50;;;1.42;;
56331;SDS011;42237;53.340;6.812;2022-08-02T08:14:09;2.75;;;1.35;;
56331;SDS011;42237;53.340;6.812;2022-08-02T08:16:34;4.82;;;1.80;;
56331;SDS011;42237;53.340;6.812;2022-08-02T08:19:00;3.50;;;1.40;;
56331;SDS011;42237;53.340;6.812;2022-08-02T08:21:27;3.63;;;1.77;;
56331;SDS011;42237;53.340;6.812;2022-08-02T08:23:54;7.45;;;1.40;;
56331;SDS011;42237;53.340;6.812;2022-08-02T08:26:20;4.72;;;1.95;;
56331;SDS011;42237;53.340;6.812;2022-08-02T08:28:46;3.17;;;1.30;;
56331;SDS011;42237;53.340;6.812;2022-08-02T08:31:12;5.68;;;1.20;;
56331;SDS011;42237;53.340;6.812;2022-08-02T08:33:37;4.05;;;1.23;;
56331;SDS011;42237;53.340;6.812;2022-08-02T08:36:03;2.83;;;1.00;;
56331;SDS011;42237;53.340;6.812;2022-08-02T08:38:29;2.50;;;1.35;;
56331;SDS011;42237;53.340;6.812;2022-08-02T08:40:55;2.33;;;1.20;;
56331;SDS011;42237;53.340;6.812;2022-08-02T08:43:20;2.50;;;0.80;;
56331;SDS011;42237;53.340;6.812;2022-08-02T08:45:47;2.67;;;0.90;;
56331;SDS011;42237;53.340;6.812;2022-08-02T08:48:13;1.63;;;0.82;;
56331;SDS011;42237;53.340;6.812;2022-08-02T08:53:25;3.20;;;1.25;;
56331;SDS011;42237;53.340;6.812;2022-08-02T08:55:53;1.65;;;0.88;;
56331;SDS011;42237;53.340;6.812;2022-08-02T08:58:21;2.75;;;0.93;;
56331;SDS011;42237;53.340;6.812;2022-08-02T09:00:47;2.22;;;1.50;;
56331;SDS011;42237;53.340;6.812;2022-08-02T09:03:13;1.88;;;0.90;;
56331;SDS011;42237;53.340;6.812;2022-08-02T09:05:39;1.50;;;0.77;;
56331;SDS011;42237;53.340;6.812;2022-08-02T09:08:11;4.55;;;0.93;;
56331;SDS011;42237;53.340;6.812;2022-08-02T09:10:45;3.72;;;1.50;;
56331;SDS011;42237;53.340;6.812;2022-08-02T09:13:25;3.45;;;1.27;;
56331;SDS011;42237;53.340;6.812;2022-08-02T09:15:57;2.88;;;1.15;;
56331;SDS011;42237;53.340;6.812;2022-08-02T09:18:37;2.67;;;0.90;;
56331;SDS011;42237;53.340;6.812;2022-08-02T09:21:04;4.03;;;0.95;;
56331;SDS011;42237;53.340;6.812;2022-08-02T09:23:36;2.63;;;0.98;;
56331;SDS011;42237;53.340;6.812;2022-08-02T09:26:08;1.02;;;0.80;;
56331;SDS011;42237;53.340;6.812;2022-08-02T09:28:45;3.45;;;0.80;;
56331;SDS011;42237;53.340;6.812;2022-08-02T09:31:20;2.72;;;0.80;;
56331;SDS011;42237;53.340;6.812;2022-08-02T09:33:52;3.05;;;1.13;;
56331;SDS011;42237;53.340;6.812;2022-08-02T09:36:23;4.35;;;0.93;;
56331;SDS011;42237;53.340;6.812;2022-08-02T09:38:55;1.65;;;0.88;;
56331;SDS011;42237;53.340;6.812;2022-08-02T09:41:24;0.88;;;0.70;;
56331;SDS011;42237;53.340;6.812;2022-08-02T09:43:51;1.88;;;1.00;;
56331;SDS011;42237;53.340;6.812;2022-08-02T09:46:21;1.58;;;0.65;;
56331;SDS011;42237;53.340;6.812;2022-08-02T09:51:16;2.53;;;0.70;;
56331;SDS011;42237;53.340;6.812;2022-08-02T09:53:43;1.40;;;0.75;;
56331;SDS011;42237;53.340;6.812;2022-08-02T09:56:09;3.42;;;0.75;;
56331;SDS011;42237;53.340;6.812;2022-08-02T09:58:38;3.90;;;0.82;;
56331;SDS011;42237;53.340;6.812;2022-08-02T10:01:04;2.53;;;0.70;;
56331;SDS011;42237;53.340;6.812;2022-08-02T10:03:30;3.22;;;0.85;;
56331;SDS011;42237;53.340;6.812;2022-08-02T10:05:55;2.63;;;0.80;;
56331;SDS011;42237;53.340;6.812;2022-08-02T10:08:25;2.50;;;0.90;;
56331;SDS011;42237;53.340;6.812;2022-08-02T10:10:52;2.22;;;1.20;;
56331;SDS011;42237;53.340;6.812;2022-08-02T10:13:31;2.13;;;0.88;;
56331;SDS011;42237;53.340;6.812;2022-08-02T10:15:58;2.97;;;0.70;;
56331;SDS011;42237;53.340;6.812;2022-08-02T10:18:26;3.28;;;1.05;;
56331;SDS011;42237;53.340;6.812;2022-08-02T10:20:53;2.65;;;1.02;;
56331;SDS011;42237;53.340;6.812;2022-08-02T10:23:20;3.83;;;1.20;;
56331;SDS011;42237;53.340;6.812;2022-08-02T10:25:48;2.30;;;1.08;;
56331;SDS011;42237;53.340;6.812;2022-08-02T10:28:16;3.95;;;1.27;;
56331;SDS011;42237;53.340;6.812;2022-08-02T10:30:44;1.27;;;1.17;;
56331;SDS011;42237;53.340;6.812;2022-08-02T10:33:12;6.35;;;1.33;;
56331;SDS011;42237;53.340;6.812;2022-08-02T10:35:41;2.45;;;1.38;;
56331;SDS011;42237;53.340;6.812;2022-08-02T10:38:09;3.53;;;1.58;;
56331;SDS011;42237;53.340;6.812;2022-08-02T10:40:46;3.58;;;1.60;;
56331;SDS011;42237;53.340;6.812;2022-08-02T10:56:55;3.78;;;1.73;;
56331;SDS011;42237;53.340;6.812;2022-08-02T10:59:27;2.20;;;1.42;;
56331;SDS011;42237;53.340;6.812;2022-08-02T11:01:55;4.03;;;1.80;;
56331;SDS011;42237;53.340;6.812;2022-08-02T11:05:12;2.83;;;1.70;;
56331;SDS011;42237;53.340;6.812;2022-08-02T11:07:15;2.35;;;1.58;;
56331;SDS011;42237;53.340;6.812;2022-08-02T11:09:55;3.10;;;1.50;;
56331;SDS011;42237;53.340;6.812;2022-08-02T11:12:21;6.13;;;1.83;;
56331;SDS011;42237;53.340;6.812;2022-08-02T11:15:08;4.85;;;2.25;;
56331;SDS011;42237;53.340;6.812;2022-08-02T11:20:28;4.05;;;1.80;;
56331;SDS011;42237;53.340;6.812;2022-08-02T11:23:32;3.90;;;2.17;;
56331;SDS011;42237;53.340;6.812;2022-08-02T11:25:59;4.72;;;1.90;;
56331;SDS011;42237;53.340;6.812;2022-08-02T11:28:24;3.65;;;1.70;;
56331;SDS011;42237;53.340;6.812;2022-08-02T11:31:00;4.53;;;1.88;;
56331;SDS011;42237;53.340;6.812;2022-08-02T11:35:59;5.57;;;2.35;;
56331;SDS011;42237;53.340;6.812;2022-08-02T11:38:26;4.32;;;1.77;;
56331;SDS011;42237;53.340;6.812;2022-08-02T11:40:53;6.20;;;2.20;;
56331;SDS011;42237;53.340;6.812;2022-08-02T11:43:20;4.75;;;1.98;;
56331;SDS011;42237;53.340;6.812;2022-08-02T11:45:51;3.38;;;1.90;;
56331;SDS011;42237;53.340;6.812;2022-08-02T11:51:03;2.78;;;1.73;;
56331;SDS011;42237;53.340;6.812;2022-08-02T11:53:33;3.15;;;1.65;;
56331;SDS011;42237;53.340;6.812;2022-08-02T11:56:05;3.65;;;1.80;;
56331;SDS011;42237;53.340;6.812;2022-08-02T11:58:31;3.25;;;2.00;;
56331;SDS011;42237;53.340;6.812;2022-08-02T12:00:56;5.07;;;1.73;;
56331;SDS011;42237;53.340;6.812;2022-08-02T12:03:22;2.50;;;1.80;;
56331;SDS011;42237;53.340;6.812;2022-08-02T12:05:48;3.85;;;1.80;;
56331;SDS011;42237;53.340;6.812;2022-08-02T12:08:14;3.92;;;2.20;;
56331;SDS011;42237;53.340;6.812;2022-08-02T12:10:49;3.92;;;1.80;;
56331;SDS011;42237;53.340;6.812;2022-08-02T12:18:18;5.13;;;1.90;;
56331;SDS011;42237;53.340;6.812;2022-08-02T12:21:25;4.30;;;2.20;;
56331;SDS011;42237;53.340;6.812;2022-08-02T12:23:51;3.15;;;2.00;;
56331;SDS011;42237;53.340;6.812;2022-08-02T12:26:17;4.30;;;1.80;;
56331;SDS011;42237;53.340;6.812;2022-08-02T12:28:43;3.20;;;1.80;;
56331;SDS011;42237;53.340;6.812;2022-08-02T12:31:12;4.35;;;2.10;;
56331;SDS011;42237;53.340;6.812;2022-08-02T12:33:45;4.78;;;2.28;;
56331;SDS011;42237;53.340;6.812;2022-08-02T12:36:19;2.58;;;2.00;;
56331;SDS011;42237;53.340;6.812;2022-08-02T12:38:52;3.13;;;1.90;;
56331;SDS011;42237;53.340;6.812;2022-08-02T12:41:22;3.47;;;1.60;;
56331;SDS011;42237;53.340;6.812;2022-08-02T12:43:49;3.08;;;1.90;;
56331;SDS011;42237;53.340;6.812;2022-08-02T12:46:16;3.75;;;1.70;;
56331;SDS011;42237;53.340;6.812;2022-08-02T12:48:49;2.30;;;1.50;;
56331;SDS011;42237;53.340;6.812;2022-08-02T12:51:31;3.85;;;1.40;;
56331;SDS011;42237;53.340;6.812;2022-08-02T12:54:10;2.20;;;1.60;;
56331;SDS011;42237;53.340;6.812;2022-08-02T12:56:37;1.88;;;1.48;;
56331;SDS011;42237;53.340;6.812;2022-08-02T12:59:03;4.13;;;2.08;;
56331;SDS011;42237;53.340;6.812;2022-08-02T13:01:30;2.60;;;1.95;;
56331;SDS011;42237;53.340;6.812;2022-08-02T13:03:56;3.75;;;2.50;;
56331;SDS011;42237;53.340;6.812;2022-08-02T13:06:23;2.97;;;2.15;;
56331;SDS011;42237;53.340;6.812;2022-08-02T13:08:50;3.08;;;1.73;;
56331;SDS011;42237;53.340;6.812;2022-08-02T13:11:19;3.00;;;1.80;;
56331;SDS011;42237;53.340;6.812;2022-08-02T13:13:45;3.70;;;2.40;;
56331;SDS011;42237;53.340;6.812;2022-08-02T13:16:11;3.67;;;2.28;;
56331;SDS011;42237;53.340;6.812;2022-08-02T13:18:37;3.67;;;2.55;;
56331;SDS011;42237;53.340;6.812;2022-08-02T13:21:06;6.05;;;2.50;;
56331;SDS011;42237;53.340;6.812;2022-08-02T13:23:34;4.00;;;3.13;;
56331;SDS011;42237;53.340;6.812;2022-08-02T13:26:01;5.93;;;3.35;;
56331;SDS011;42237;53.340;6.812;2022-08-02T13:28:28;7.40;;;3.83;;
56331;SDS011;42237;53.340;6.812;2022-08-02T13:30:53;6.05;;;3.30;;
56331;SDS011;42237;53.340;6.812;2022-08-02T13:33:19;4.88;;;3.88;;
56331;SDS011;42237;53.340;6.812;2022-08-02T13:35:45;5.22;;;3.97;;
56331;SDS011;42237;53.340;6.812;2022-08-02T13:38:12;5.68;;;4.05;;
56331;SDS011;42237;53.340;6.812;2022-08-02T13:40:38;4.75;;;3.60;;
56331;SDS011;42237;53.340;6.812;2022-08-02T13:43:23;4.88;;;3.80;;
56331;SDS011;42237;53.340;6.812;2022-08-02T13:45:52;7.53;;;3.65;;
56331;SDS011;42237;53.340;6.812;2022-08-02T13:48:18;5.20;;;3.72;;
56331;SDS011;42237;53.340;6.812;2022-08-02T13:50:44;5.70;;;4.20;;
56331;SDS011;42237;53.340;6.812;2022-08-02T13:53:10;5.40;;;4.10;;
56331;SDS011;42237;53.340;6.812;2022-08-02T13:55:36;5.70;;;4.18;;
56331;SDS011;42237;53.340;6.812;2022-08-02T13:58:02;7.72;;;4.32;;
56331;SDS011;42237;53.340;6.812;2022-08-02T14:00:30;4.93;;;3.90;;
56331;SDS011;42237;53.340;6.812;2022-08-02T14:02:56;6.22;;;4.25;;
56331;SDS011;42237;53.340;6.812;2022-08-02T14:05:37;6.00;;;3.65;;
56331;SDS011;42237;53.340;6.812;2022-08-02T14:08:03;6.70;;;3.35;;
56331;SDS011;42237;53.340;6.812;2022-08-02T14:10:35;4.03;;;3.33;;
56331;SDS011;42237;53.340;6.812;2022-08-02T14:13:00;4.63;;;2.88;;
56331;SDS011;42237;53.340;6.812;2022-08-02T14:15:40;4.57;;;2.70;;
56331;SDS011;42237;53.340;6.812;2022-08-02T14:18:09;4.00;;;3.13;;
56331;SDS011;42237;53.340;6.812;2022-08-02T14:20:35;4.68;;;2.78;;
56331;SDS011;42237;53.340;6.812;2022-08-02T14:23:03;3.05;;;2.35;;
56331;SDS011;42237;53.340;6.812;2022-08-02T14:25:33;4.85;;;2.90;;
56331;SDS011;42237;53.340;6.812;2022-08-02T14:28:02;4.28;;;2.80;;
56331;SDS011;42237;53.340;6.812;2022-08-02T14:30:33;4.90;;;2.65;;
56331;SDS011;42237;53.340;6.812;2022-08-02T14:33:01;5.03;;;2.85;;
56331;SDS011;42237;53.340;6.812;2022-08-02T14:35:28;4.38;;;2.90;;
56331;SDS011;42237;53.340;6.812;2022-08-02T14:37:54;4.47;;;2.92;;
56331;SDS011;42237;53.340;6.812;2022-08-02T14:40:19;5.25;;;2.90;;
56331;SDS011;42237;53.340;6.812;2022-08-02T14:42:48;4.43;;;3.60;;
56331;SDS011;42237;53.340;6.812;2022-08-02T14:45:18;3.75;;;3.08;;
56331;SDS011;42237;53.340;6.812;2022-08-02T14:47:49;4.72;;;3.20;;
56331;SDS011;42237;53.340;6.812;2022-08-02T14:50:15;4.43;;;3.13;;
56331;SDS011;42237;53.340;6.812;2022-08-02T14:52:46;5.30;;;3.50;;
56331;SDS011;42237;53.340;6.812;2022-08-02T14:55:19;4.82;;;3.40;;
56331;SDS011;42237;53.340;6.812;2022-08-02T14:57:45;5.15;;;3.80;;
56331;SDS011;42237;53.340;6.812;2022-08-02T15:00:11;5.68;;;4.30;;
56331;SDS011;42237;53.340;6.812;2022-08-02T15:02:37;4.68;;;3.90;;
56331;SDS011;42237;53.340;6.812;2022-08-02T15:05:03;3.97;;;3.53;;
56331;SDS011;42237;53.340;6.812;2022-08-02T15:07:31;4.75;;;4.20;;
56331;SDS011;42237;53.340;6.812;2022-08-02T15:09:57;5.10;;;3.17;;
56331;SDS011;42237;53.340;6.812;2022-08-02T15:12:23;5.70;;;4.03;;
56331;SDS011;42237;53.340;6.812;2022-08-02T15:14:48;7.05;;;3.47;;
56331;SDS011;42237;53.340;6.812;2022-08-02T15:17:14;7.15;;;3.70;;
56331;SDS011;42237;53.340;6.812;2022-08-02T15:19:40;6.32;;;3.78;;
56331;SDS011;42237;53.340;6.812;2022-08-02T15:22:06;8.70;;;3.50;;
56331;SDS011;42237;53.340;6.812;2022-08-02T15:24:32;6.75;;;4.50;;
56331;SDS011;42237;53.340;6.812;2022-08-02T15:26:58;4.63;;;3.95;;
56331;SDS011;42237;53.340;6.812;2022-08-02T15:29:24;6.68;;;4.50;;
56331;SDS011;42237;53.340;6.812;2022-08-02T15:31:49;5.70;;;4.10;;
56331;SDS011;42237;53.340;6.812;2022-08-02T15:34:20;5.68;;;3.55;;
56331;SDS011;42237;53.340;6.812;2022-08-02T15:36:45;10.27;;;4.53;;
56331;SDS011;42237;53.340;6.812;2022-08-02T15:39:11;4.55;;;3.58;;